Terminal Aerodrome Forecast
Issued by NWS Sterling, VA

Home | Current Version | Previous Version | Text Only | Print | Product List | Glossary On
Versions: 1 2 3 4 5 6 7 8 9 10 11 12 13 14 15 16 17 18 19 20 21 22 23 24 25
000
FTUS41 KLWX 220200 AAA
TAFDCA
TAF AMD
KDCA 220258Z 2203/2224 30011G16KT P6SM BKN080 OVC100
     FM220400 30010KT P6SM FEW080
     FM221400 33013G23KT P6SM FEW050
     FM222100 33012KT P6SM SKC=

USA.gov is the U.S. government's official web portal to all federal, state and local government web resources and services.